Terminal Aerodrome Forecast
Issued by NWS

Home | Current Version | Previous Version | Text Only | Print | Product List | Glossary On
Versions: 1 2 3 4 5 6 7 8 9 10 11 12 13
681
FTUS45 KVEF 101120
TAFVGT
TAF
KVGT 101120Z 1012/1112 32005KT P6SM SKC
     FM101600 VRB03KT P6SM SCT250
     FM110400 32006KT P6SM FEW250=

USA.gov is the U.S. government's official web portal to all federal, state and local government web resources and services.